Time;durP1;ratioP1;P1;durP2;ratioP2;P2;SDS_P1;SDS_P2;PMS_P1;PMS_P2;Temp;Humidity;BMP_temperature;BMP_pressure;BME280_temperature;BME280_humidity;BME280_pressure;Samples;Min_cycle;Max_cycle;Signal;HPM_P1;HPM_P2
2022/09/13 00:01:21;;;;;;;3.30;3.00;;;16.00;99.90;;;;;;5060109;28;20146;-48
2022/09/13 00:03:46;;;;;;;3.95;3.28;;;16.00;99.90;;;;;;5042296;28;20035;-49
2022/09/13 00:06:15;;;;;;;3.63;3.28;;;15.90;99.90;;;;;;5059889;28;20251;-46
2022/09/13 00:08:41;;;;;;;4.20;3.53;;;16.00;99.90;;;;;;5060736;28;20048;-46
2022/09/13 00:11:12;;;;;;;3.25;2.95;;;16.00;99.90;;;;;;5040674;28;20036;-50
2022/09/13 00:13:38;;;;;;;3.20;3.00;;;16.00;99.90;;;;;;5042806;28;20027;-46
2022/09/13 00:16:14;;;;;;;3.60;3.30;;;15.90;99.90;;;;;;5059090;28;20024;-47
2022/09/13 00:18:40;;;;;;;;;;;15.90;99.90;;;;;;5060291;28;20032;-47
2022/09/13 00:21:12;;;;;;;3.53;3.22;;;15.90;99.90;;;;;;5059653;28;19917;-46
2022/09/13 00:23:40;;;;;;;3.60;3.30;;;15.90;99.90;;;;;;5060612;28;20023;-48
2022/09/13 00:26:09;;;;;;;3.03;2.70;;;15.90;99.90;;;;;;5039731;28;20033;-48
2022/09/13 00:28:38;;;;;;;3.30;3.00;;;15.90;99.90;;;;;;5026682;28;20390;-49
2022/09/13 00:31:06;;;;;;;3.28;2.97;;;15.90;99.90;;;;;;5032873;28;20044;-48
2022/09/13 00:33:32;;;;;;;5.72;3.38;;;15.90;99.90;;;;;;5060439;28;20028;-48
2022/09/13 00:36:01;;;;;;;3.40;3.10;;;15.90;99.90;;;;;;5062946;28;20096;-49
2022/09/13 00:38:27;;;;;;;4.43;3.50;;;15.90;99.90;;;;;;5062602;28;20025;-47
2022/09/13 00:40:52;;;;;;;5.20;4.40;;;15.80;99.90;;;;;;5072390;22;20095;-57
2022/09/13 00:43:20;;;;;;;3.80;3.50;;;15.80;99.90;;;;;;5044115;28;20113;-52
2022/09/13 00:45:47;;;;;;;3.92;3.63;;;15.80;99.90;;;;;;5039999;28;20345;-52
2022/09/13 00:48:24;;;;;;;5.53;3.35;;;15.70;99.90;;;;;;5046726;28;20468;-55
2022/09/13 00:50:53;;;;;;;4.00;3.65;;;15.70;99.90;;;;;;5037519;28;20395;-51
2022/09/13 00:53:24;;;;;;;7.43;4.13;;;15.70;99.90;;;;;;5045764;28;20037;-51
2022/09/13 00:56:08;;;;;;;4.93;3.38;;;15.70;99.90;;;;;;5019815;28;20029;-50
2022/09/13 00:58:43;;;;;;;4.75;3.95;;;15.70;99.90;;;;;;5044075;28;20029;-51
2022/09/13 01:01:13;;;;;;;5.18;4.32;;;15.60;99.90;;;;;;5040470;28;20021;-58
2022/09/13 01:03:40;;;;;;;4.97;4.35;;;15.60;99.90;;;;;;5040819;28;20025;-51
2022/09/13 01:06:16;;;;;;;4.60;4.20;;;15.50;99.90;;;;;;5042215;28;20025;-52
2022/09/13 01:08:45;;;;;;;4.38;3.97;;;15.50;99.90;;;;;;5043512;28;20040;-54
2022/09/13 01:11:22;;;;;;;6.70;4.70;;;15.50;99.90;;;;;;5042972;28;20044;-55
2022/09/13 01:13:50;;;;;;;4.50;4.10;;;15.40;99.90;;;;;;5025618;28;20577;-50
2022/09/13 01:16:15;;;;;;;4.85;4.35;;;15.40;99.90;;;;;;5033400;28;20380;-52
2022/09/13 01:18:41;;;;;;;4.60;4.20;;;15.40;99.90;;;;;;5043657;28;20036;-50
2022/09/13 01:21:24;;;;;;;4.97;4.43;;;15.40;99.90;;;;;;5041665;28;20033;-50
2022/09/13 01:24:18;;;;;;;5.30;4.80;;;15.40;99.90;;;;;;5043639;28;20028;-49
2022/09/13 01:26:56;;;;;;;5.68;4.78;;;15.40;99.90;;;;;;5042792;28;20391;-49
2022/09/13 01:30:01;;;;;;;4.35;3.80;;;15.40;99.90;;;;;;5036398;28;20037;-52
2022/09/13 01:32:26;;;;;;;5.20;4.70;;;15.40;99.90;;;;;;5033679;28;20033;-53
2022/09/13 01:35:38;;;;;;;7.80;4.80;;;15.40;99.90;;;;;;5041443;28;20021;-51
2022/09/13 01:38:32;;;;;;;4.88;4.22;;;15.40;99.90;;;;;;5038479;28;20036;-51
2022/09/13 01:41:17;;;;;;;5.60;4.65;;;15.40;99.90;;;;;;5034747;28;20079;-53
2022/09/13 01:44:11;;;;;;;6.43;5.07;;;15.40;99.90;;;;;;5035459;28;20487;-51
2022/09/13 01:46:42;;;;;;;5.22;4.40;;;15.40;99.90;;;;;;5038837;28;20029;-52
2022/09/13 01:49:38;;;;;;;4.45;4.05;;;15.30;99.90;;;;;;5041472;28;20017;-49
2022/09/13 01:52:19;;;;;;;5.15;4.65;;;15.30;99.90;;;;;;5041679;28;20021;-50
2022/09/13 01:55:07;;;;;;;5.15;4.75;;;15.30;99.90;;;;;;5036318;28;20029;-51
2022/09/13 01:57:41;;;;;;;6.07;4.55;;;15.30;99.90;;;;;;5035662;28;20451;-52
2022/09/13 02:00:12;;;;;;;5.15;4.63;;;15.30;99.90;;;;;;5034222;28;20107;-50
2022/09/13 02:02:44;;;;;;;5.15;4.65;;;15.30;99.90;;;;;;5045799;28;20082;-49
2022/09/13 02:05:39;;;;;;;6.43;5.00;;;15.30;99.90;;;;;;5035187;28;20024;-55
2022/09/13 02:08:10;;;;;;;4.47;4.10;;;15.30;99.90;;;;;;5022684;28;20024;-52
2022/09/13 02:10:45;;;;;;;5.38;4.70;;;15.30;99.90;;;;;;5034510;28;20036;-49
2022/09/13 02:13:16;;;;;;;4.13;3.72;;;15.30;99.90;;;;;;5044924;28;20061;-53
2022/09/13 02:15:47;;;;;;;6.57;5.05;;;15.30;99.90;;;;;;5039731;28;20110;-50
2022/09/13 02:18:38;;;;;;;6.43;5.07;;;15.30;99.90;;;;;;5027842;28;20049;-50
2022/09/13 02:21:17;;;;;;;4.85;4.32;;;15.30;99.90;;;;;;5022082;28;20025;-55
2022/09/13 02:23:57;;;;;;;5.35;4.85;;;15.30;99.90;;;;;;5042803;28;20057;-54
2022/09/13 02:26:26;;;;;;;5.50;4.90;;;15.30;99.90;;;;;;5013726;28;20025;-50
2022/09/13 02:28:54;;;;;;;5.25;4.72;;;15.30;99.90;;;;;;5040148;28;20021;-50
2022/09/13 02:31:29;;;;;;;5.10;4.53;;;15.30;99.90;;;;;;5024313;28;20025;-51
2022/09/13 02:33:59;;;;;;;6.60;5.00;;;15.30;99.90;;;;;;5041361;28;20083;-50
2022/09/13 02:36:30;;;;;;;6.15;5.22;;;15.30;99.90;;;;;;5042134;28;20120;-50
2022/09/13 02:39:05;;;;;;;5.97;4.65;;;15.30;99.90;;;;;;5041344;28;20348;-50
2022/09/13 02:42:06;;;;;;;5.75;5.05;;;15.30;99.90;;;;;;5041792;28;20094;-51
2022/09/13 02:44:34;;;;;;;6.38;5.53;;;15.30;99.90;;;;;;5012803;28;20025;-49
2022/09/13 02:47:28;;;;;;;6.03;5.43;;;15.30;99.90;;;;;;5045428;28;20029;-53
2022/09/13 02:50:07;;;;;;;5.97;5.47;;;15.30;99.90;;;;;;5036609;28;20431;-52
2022/09/13 02:52:57;;;;;;;8.95;5.85;;;15.30;99.90;;;;;;5043280;28;20056;-50
2022/09/13 02:55:38;;;;;;;6.15;5.53;;;15.20;99.90;;;;;;5030777;28;20097;-53
2022/09/13 02:58:06;;;;;;;6.05;5.45;;;15.20;99.90;;;;;;5038709;28;20049;-52
2022/09/13 03:00:32;;;;;;;7.32;5.60;;;15.20;99.90;;;;;;5041710;28;20081;-51
2022/09/13 03:03:02;;;;;;;5.72;5.13;;;15.20;99.90;;;;;;5039992;28;20559;-52
2022/09/13 03:05:28;;;;;;;6.30;5.70;;;15.20;99.90;;;;;;5041058;28;20104;-51
2022/09/13 03:07:54;;;;;;;7.95;5.35;;;15.20;99.90;;;;;;5041044;28;20167;-55
2022/09/13 03:10:22;;;;;;;6.05;5.22;;;15.20;99.90;;;;;;5040287;28;20471;-50
2022/09/13 03:13:00;;;;;;;8.10;5.70;;;15.20;99.90;;;;;;5041446;28;20086;-56
2022/09/13 03:15:28;;;;;;;7.38;5.88;;;15.20;99.90;;;;;;5017271;28;20111;-55
2022/09/13 03:18:03;;;;;;;6.97;6.20;;;15.20;99.90;;;;;;5040353;28;20029;-53
2022/09/13 03:20:48;;;;;;;7.07;5.93;;;15.20;99.90;;;;;;5042802;28;20507;-51
2022/09/13 03:23:26;;;;;;;7.72;6.60;;;15.20;99.90;;;;;;5038056;28;20416;-52
2022/09/13 03:26:07;;;;;;;6.57;5.97;;;15.20;99.90;;;;;;5037995;28;20025;-51
2022/09/13 03:28:35;;;;;;;7.63;6.25;;;15.20;99.90;;;;;;5041600;28;20029;-51
2022/09/13 03:31:17;;;;;;;7.50;6.63;;;15.20;99.90;;;;;;5039291;28;20083;-49
2022/09/13 03:34:10;;;;;;;7.28;6.57;;;15.20;99.90;;;;;;5040820;28;20021;-50
2022/09/13 03:36:44;;;;;;;7.20;6.50;;;15.20;99.90;;;;;;5032507;28;20115;-49
2022/09/13 03:39:34;;;;;;;8.18;7.38;;;15.20;99.90;;;;;;5040857;28;20578;-54
2022/09/13 03:42:04;;;;;;;10.68;7.20;;;15.30;99.90;;;;;;5039155;28;20037;-50
2022/09/13 03:44:31;;;;;;;12.77;8.07;;;15.30;99.90;;;;;;5041737;28;20040;-52
2022/09/13 03:47:01;;;;;;;10.20;7.43;;;15.30;99.90;;;;;;5039842;28;20756;-50
2022/09/13 03:49:29;;;;;;;9.77;7.50;;;15.20;99.90;;;;;;5035473;28;20017;-50
2022/09/13 03:51:55;;;;;;;8.73;7.22;;;15.30;99.90;;;;;;5039766;28;20025;-50
2022/09/13 03:54:28;;;;;;;9.40;8.05;;;15.30;99.90;;;;;;5041613;28;20487;-50
2022/09/13 03:57:18;;;;;;;10.40;8.07;;;15.30;99.90;;;;;;5040149;28;20495;-51
2022/09/13 03:59:47;;;;;;;10.00;7.68;;;15.30;99.90;;;;;;5033420;28;20463;-51
2022/09/13 04:02:14;;;;;;;8.52;7.60;;;15.30;99.90;;;;;;5043454;28;20018;-52
2022/09/13 04:04:40;;;;;;;9.15;8.18;;;15.30;99.90;;;;;;5037842;28;20104;-50
2022/09/13 04:07:07;;;;;;;9.85;8.82;;;15.30;99.90;;;;;;5044303;28;20036;-50
2022/09/13 04:09:33;;;;;;;8.77;7.68;;;15.30;99.90;;;;;;5038379;28;20032;-52
2022/09/13 04:11:59;;;;;;;10.32;7.88;;;15.30;99.90;;;;;;5040247;28;20067;-52
2022/09/13 04:14:25;;;;;;;10.82;8.68;;;15.30;99.90;;;;;;5044933;28;20491;-50
2022/09/13 04:16:55;;;;;;;13.20;9.70;;;15.40;99.90;;;;;;5043691;28;20025;-55
2022/09/13 04:19:22;;;;;;;13.88;10.38;;;15.40;99.90;;;;;;5044300;28;20048;-52
2022/09/13 04:21:49;;;;;;;16.70;11.73;;;15.40;99.90;;;;;;5043984;28;21331;-52
2022/09/13 04:24:16;;;;;;;14.68;10.80;;;15.40;99.90;;;;;;5044658;28;20530;-50
2022/09/13 04:26:42;;;;;;;12.48;10.93;;;15.40;99.90;;;;;;5043207;28;20395;-52
2022/09/13 04:29:07;;;;;;;14.38;11.43;;;15.30;99.90;;;;;;5043455;28;20080;-51
2022/09/13 04:31:33;;;;;;;14.65;13.07;;;15.30;99.90;;;;;;5044089;28;20508;-51
2022/09/13 04:33:59;;;;;;;17.95;12.10;;;15.40;99.90;;;;;;5043198;28;20022;-50
2022/09/13 04:36:25;;;;;;;15.15;13.05;;;15.30;99.90;;;;;;5044319;28;20155;-53
2022/09/13 04:38:50;;;;;;;18.08;13.52;;;15.30;99.90;;;;;;5044041;28;20067;-52
2022/09/13 04:41:16;;;;;;;17.48;13.70;;;15.30;99.90;;;;;;5025811;28;20391;-52
2022/09/13 04:43:42;;;;;;;17.73;13.13;;;15.30;99.90;;;;;;5043184;28;20083;-53
2022/09/13 04:46:07;;;;;;;17.40;13.20;;;15.30;99.90;;;;;;5043458;28;20488;-51
2022/09/13 04:48:33;;;;;;;20.20;15.25;;;15.30;99.90;;;;;;5044322;28;20053;-51
2022/09/13 04:51:03;;;;;;;17.98;14.68;;;15.30;99.90;;;;;;5042917;28;20025;-52
2022/09/13 04:53:30;;;;;;;20.30;14.77;;;15.30;99.90;;;;;;5043933;28;20103;-50
2022/09/13 04:56:03;;;;;;;20.77;15.00;;;15.30;99.90;;;;;;5043511;28;20029;-51
2022/09/13 04:58:30;;;;;;;20.02;15.20;;;15.30;99.90;;;;;;5044181;28;20032;-50
2022/09/13 05:01:03;;;;;;;21.05;14.80;;;15.30;99.90;;;;;;5024232;28;20116;-50
2022/09/13 05:03:33;;;;;;;18.67;14.60;;;15.30;99.90;;;;;;5043669;28;20098;-51
2022/09/13 05:06:06;;;;;;;18.98;15.85;;;15.30;99.90;;;;;;5042211;28;20040;-51
2022/09/13 05:08:32;;;;;;;22.77;16.67;;;15.30;99.90;;;;;;5038422;28;20472;-51
2022/09/13 05:10:58;;;;;;;20.40;16.08;;;15.20;99.90;;;;;;5028834;28;20059;-50
2022/09/13 05:13:27;;;;;;;20.33;16.55;;;15.30;99.90;;;;;;5022391;28;20029;-52
2022/09/13 05:15:57;;;;;;;20.52;15.68;;;15.30;99.90;;;;;;5047366;28;20044;-50
2022/09/13 05:18:30;;;;;;;24.90;18.65;;;15.30;99.90;;;;;;5040145;28;20025;-53
2022/09/13 05:20:57;;;;;;;18.83;15.43;;;15.30;99.90;;;;;;5046962;28;20515;-51
2022/09/13 05:23:24;;;;;;;22.70;16.45;;;15.30;99.90;;;;;;5040287;28;20022;-50
2022/09/13 05:25:57;;;;;;;24.48;17.08;;;15.30;99.90;;;;;;5040434;28;20037;-52
2022/09/13 05:28:25;;;;;;;23.42;16.65;;;15.30;99.90;;;;;;5045088;28;20132;-52
2022/09/13 05:31:05;;;;;;;20.10;16.35;;;15.30;99.90;;;;;;5040506;28;20026;-50
2022/09/13 05:33:33;;;;;;;25.50;18.48;;;15.40;99.90;;;;;;5026817;28;20034;-50
2022/09/13 05:35:59;;;;;;;23.48;17.80;;;15.40;99.90;;;;;;5041716;28;20426;-50
2022/09/13 05:38:24;;;;;;;26.10;18.42;;;15.40;99.90;;;;;;5046582;28;20029;-51
2022/09/13 05:40:55;;;;;;;21.10;16.30;;;15.40;99.90;;;;;;5039667;28;20091;-51
2022/09/13 05:43:21;;;;;;;22.23;18.05;;;15.30;99.90;;;;;;5043165;28;20024;-51
2022/09/13 05:45:46;;;;;;;21.25;16.92;;;15.40;99.90;;;;;;5041815;28;20384;-50
2022/09/13 05:48:12;;;;;;;23.25;18.02;;;15.40;99.90;;;;;;5042950;28;20028;-52
2022/09/13 05:50:37;;;;;;;24.30;17.88;;;15.40;99.90;;;;;;5043415;28;20039;-51
2022/09/13 05:53:04;;;;;;;23.13;18.23;;;15.40;99.90;;;;;;5041608;28;20036;-50
2022/09/13 05:55:29;;;;;;;26.70;18.55;;;15.40;99.90;;;;;;5045471;28;20483;-51
2022/09/13 05:57:55;;;;;;;22.65;18.23;;;15.40;99.90;;;;;;5040669;28;20025;-49
2022/09/13 06:00:21;;;;;;;27.67;19.17;;;15.40;99.90;;;;;;5043096;28;20104;-50
2022/09/13 06:02:46;;;;;;;26.67;18.88;;;15.50;99.90;;;;;;5041239;28;20087;-50
2022/09/13 06:05:12;;;;;;;26.83;18.67;;;15.50;99.90;;;;;;5042970;28;20533;-50
2022/09/13 06:07:41;;;;;;;28.73;20.85;;;15.50;99.90;;;;;;5043112;28;20331;-51
2022/09/13 06:10:08;;;;;;;27.02;19.92;;;15.60;99.90;;;;;;5039859;28;20553;-52
2022/09/13 06:12:33;;;;;;;24.23;19.20;;;15.60;99.90;;;;;;5042634;28;20029;-50
2022/09/13 06:14:59;;;;;;;21.88;17.08;;;15.60;99.90;;;;;;5041301;28;20095;-51
2022/09/13 06:17:25;;;;;;;23.33;16.52;;;15.60;99.90;;;;;;5042453;28;20094;-51
2022/09/13 06:19:51;;;;;;;26.67;19.45;;;15.60;99.90;;;;;;5041459;28;20040;-51
2022/09/13 06:22:16;;;;;;;27.67;19.08;;;15.60;99.90;;;;;;5042364;28;20024;-50
2022/09/13 06:24:42;;;;;;;24.02;17.98;;;15.70;99.90;;;;;;5042630;28;20025;-50
2022/09/13 06:27:09;;;;;;;27.27;18.73;;;15.70;99.90;;;;;;5040442;28;20045;-50
2022/09/13 06:29:35;;;;;;;21.40;16.50;;;15.80;99.90;;;;;;5042320;28;20013;-50
2022/09/13 06:32:01;;;;;;;24.20;17.52;;;15.70;99.90;;;;;;5040635;28;20545;-50
2022/09/13 06:34:27;;;;;;;21.45;15.95;;;15.70;99.90;;;;;;5042406;28;20025;-50
2022/09/13 06:36:53;;;;;;;22.83;16.83;;;15.80;99.90;;;;;;5042157;28;20036;-49
2022/09/13 06:39:18;;;;;;;21.88;17.02;;;15.90;99.90;;;;;;5042376;28;20032;-50
2022/09/13 06:41:44;;;;;;;22.17;16.02;;;16.00;99.90;;;;;;5063506;22;20048;-48
2022/09/13 06:44:09;;;;;;;22.23;16.20;;;16.10;99.90;;;;;;5039885;28;20032;-48
2022/09/13 06:46:35;;;;;;;26.08;18.30;;;16.10;99.90;;;;;;5038944;28;20021;-48
2022/09/13 06:49:06;;;;;;;23.42;16.70;;;16.10;99.90;;;;;;5038295;28;20448;-49
2022/09/13 06:51:33;;;;;;;20.80;15.80;;;16.20;99.90;;;;;;5022170;28;20036;-50
2022/09/13 06:54:00;;;;;;;21.63;17.23;;;16.20;99.90;;;;;;5041194;28;20399;-49
2022/09/13 06:56:31;;;;;;;21.10;15.93;;;16.30;99.90;;;;;;5041868;28;20065;-48
2022/09/13 06:59:03;;;;;;;28.85;17.13;;;16.40;99.90;;;;;;5040610;28;20024;-48
2022/09/13 07:01:32;;;;;;;17.42;13.98;;;16.50;99.90;;;;;;5023803;28;20115;-48
2022/09/13 07:04:00;;;;;;;19.25;14.05;;;16.50;99.90;;;;;;5040569;28;20021;-48
2022/09/13 07:06:28;;;;;;;20.25;13.98;;;16.50;99.90;;;;;;5034735;28;20503;-50
2022/09/13 07:08:55;;;;;;;19.42;12.98;;;16.60;99.90;;;;;;5033743;28;20033;-50
2022/09/13 07:11:22;;;;;;;16.90;12.35;;;16.60;99.90;;;;;;5025097;28;20380;-48
2022/09/13 07:13:49;;;;;;;17.80;12.60;;;16.60;99.90;;;;;;5038010;28;20048;-50
2022/09/13 07:16:16;;;;;;;16.55;12.07;;;16.50;99.90;;;;;;5031190;28;20026;-49
2022/09/13 07:18:41;;;;;;;14.63;10.82;;;16.60;99.90;;;;;;5037523;28;20083;-49
2022/09/13 07:21:09;;;;;;;16.35;10.13;;;16.60;99.90;;;;;;5045936;28;20036;-48
2022/09/13 07:23:37;;;;;;;15.07;10.05;;;16.50;99.90;;;;;;5037082;28;20025;-49
2022/09/13 07:26:04;;;;;;;15.40;10.80;;;16.50;99.90;;;;;;5039874;28;20017;-49
2022/09/13 07:28:41;;;;;;;19.13;11.18;;;16.60;99.90;;;;;;5041581;28;20503;-49
2022/09/13 07:31:11;;;;;;;13.95;10.55;;;16.50;99.90;;;;;;5039923;28;20522;-48
2022/09/13 07:33:38;;;;;;;14.07;10.35;;;16.60;99.90;;;;;;5041567;28;20032;-50
2022/09/13 07:36:07;;;;;;;16.77;10.77;;;16.60;99.90;;;;;;5039724;28;20049;-49
2022/09/13 07:38:34;;;;;;;14.23;9.52;;;16.70;99.90;;;;;;5042691;28;20087;-51
2022/09/13 07:41:00;;;;;;;12.65;9.40;;;16.80;99.90;;;;;;5038993;28;20021;-48
2022/09/13 07:43:26;;;;;;;11.02;8.80;;;16.80;99.90;;;;;;5022466;28;20021;-48
2022/09/13 07:45:57;;;;;;;17.63;9.05;;;16.90;99.90;;;;;;5039314;28;20014;-48
2022/09/13 07:48:22;;;;;;;14.13;9.30;;;16.90;99.90;;;;;;5041439;28;20376;-49
2022/09/13 07:51:28;;;;;;;13.05;7.78;;;17.00;99.90;;;;;;5022302;28;20132;-49
2022/09/13 07:54:02;;;;;;;15.23;7.97;;;17.00;99.90;;;;;;4968714;28;20464;-48
2022/09/13 07:56:30;;;;;;;12.52;7.35;;;17.00;99.90;;;;;;5041014;28;20037;-49
2022/09/13 07:58:59;;;;;;;13.38;7.32;;;17.00;99.90;;;;;;5039546;28;20354;-48
2022/09/13 08:01:32;;;;;;;9.18;6.13;;;17.00;99.90;;;;;;5028931;28;20037;-50
2022/09/13 08:04:00;;;;;;;10.05;6.68;;;17.00;99.90;;;;;;5035686;28;20390;-51
2022/09/13 08:06:28;;;;;;;7.15;5.47;;;17.00;99.90;;;;;;5040596;28;20108;-52
2022/09/13 08:08:54;;;;;;;11.35;5.30;;;17.00;99.90;;;;;;5022374;28;20514;-48
2022/09/13 08:11:28;;;;;;;7.88;5.05;;;17.10;99.90;;;;;;5034085;28;20036;-48
2022/09/13 08:13:54;;;;;;;7.95;4.25;;;17.20;99.90;;;;;;5038782;28;20491;-50
2022/09/13 08:16:21;;;;;;;8.23;3.33;;;17.20;99.90;;;;;;5040643;28;20075;-49
2022/09/13 08:18:49;;;;;;;8.88;4.15;;;17.30;99.90;;;;;;5021874;28;20500;-49
2022/09/13 08:21:15;;;;;;;5.93;3.70;;;17.30;99.90;;;;;;5033377;28;20029;-52
2022/09/13 08:23:42;;;;;;;5.13;1.92;;;17.30;99.90;;;;;;5039860;28;20162;-47
2022/09/13 08:26:09;;;;;;;4.95;2.50;;;17.40;99.90;;;;;;5021903;28;20026;-49
2022/09/13 08:28:36;;;;;;;5.38;1.70;;;17.50;99.90;;;;;;5022565;28;20314;-49
2022/09/13 08:31:04;;;;;;;5.07;1.55;;;17.70;99.90;;;;;;5038628;28;20455;-47
2022/09/13 08:33:31;;;;;;;4.88;1.20;;;17.80;99.90;;;;;;5037190;28;20061;-48
2022/09/13 08:35:57;;;;;;;3.83;1.45;;;18.10;99.90;;;;;;5037789;28;20021;-49
2022/09/13 08:38:22;;;;;;;7.93;1.45;;;18.20;99.90;;;;;;5022325;28;20361;-50
2022/09/13 08:41:02;;;;;;;2.53;1.27;;;18.40;99.90;;;;;;5037958;28;20112;-48
2022/09/13 08:43:47;;;;;;;6.63;1.17;;;18.50;99.90;;;;;;5013408;28;20182;-48
2022/09/13 08:46:38;;;;;;;4.10;1.38;;;18.40;99.90;;;;;;5038975;28;20491;-47
2022/09/13 08:49:10;;;;;;;5.35;1.55;;;18.30;99.90;;;;;;5037960;28;20105;-48
2022/09/13 08:51:43;;;;;;;5.10;1.50;;;18.10;99.90;;;;;;5035896;28;20033;-47
2022/09/13 08:54:15;;;;;;;5.55;1.13;;;18.00;99.90;;;;;;5037437;28;20136;-49
2022/09/13 08:56:52;;;;;;;2.63;0.77;;;17.90;99.90;;;;;;5017296;28;20029;-47
2022/09/13 08:59:55;;;;;;;3.50;1.33;;;17.90;99.90;;;;;;5033325;28;20484;-49
2022/09/13 09:02:54;;;;;;;4.45;1.17;;;17.90;99.90;;;;;;5028799;28;20079;-47
2022/09/13 09:05:26;;;;;;;6.18;1.20;;;18.00;99.90;;;;;;5043427;28;20105;-47
2022/09/13 09:08:05;;;;;;;5.57;1.00;;;18.10;99.90;;;;;;5043567;28;20017;-49
2022/09/13 09:10:41;;;;;;;7.18;1.08;;;18.20;99.90;;;;;;5043695;28;20024;-47
2022/09/13 09:13:36;;;;;;;4.32;0.90;;;18.30;99.90;;;;;;5022595;28;20029;-49
2022/09/13 09:16:23;;;;;;;7.00;0.70;;;18.40;99.90;;;;;;5039740;28;20080;-47
2022/09/13 09:18:50;;;;;;;6.43;0.90;;;18.50;99.90;;;;;;5043308;28;20433;-49
2022/09/13 09:21:17;;;;;;;2.67;0.70;;;18.60;99.90;;;;;;5041648;28;20029;-47
2022/09/13 09:23:50;;;;;;;6.57;1.05;;;18.60;99.90;;;;;;5043706;28;20029;-47
2022/09/13 09:26:18;;;;;;;4.00;0.95;;;18.70;99.90;;;;;;5040237;28;20074;-48
2022/09/13 09:28:55;;;;;;;4.40;1.00;;;18.80;99.90;;;;;;5046861;28;20025;-49
2022/09/13 09:31:41;;;;;;;1.42;0.93;;;18.90;99.90;;;;;;5038141;28;20055;-47
2022/09/13 09:34:22;;;;;;;1.60;0.73;;;19.00;99.90;;;;;;5045996;28;20048;-48
2022/09/13 09:37:09;;;;;;;3.33;0.85;;;19.00;99.90;;;;;;5036367;28;20032;-47
2022/09/13 09:39:38;;;;;;;3.03;1.00;;;19.10;99.90;;;;;;5036137;28;20025;-47
2022/09/13 09:42:13;;;;;;;4.45;0.90;;;19.00;99.90;;;;;;5041009;28;20057;-48
2022/09/13 09:44:42;;;;;;;5.30;0.90;;;19.10;99.90;;;;;;5025751;28;20026;-51
2022/09/13 09:47:13;;;;;;;5.10;0.85;;;19.10;99.90;;;;;;5042429;28;20056;-46
2022/09/13 09:52:38;;;;;;;3.30;1.00;;;19.10;99.90;;;;;;5033564;28;20064;-47
2022/09/13 09:55:25;;;;;;;4.70;0.88;;;19.30;99.90;;;;;;5040704;28;20025;-46
2022/09/13 09:58:07;;;;;;;2.30;0.82;;;19.30;99.90;;;;;;5042358;28;20043;-47
2022/09/13 10:00:49;;;;;;;3.15;0.77;;;19.30;99.90;;;;;;5039633;28;20064;-47
2022/09/13 10:03:22;;;;;;;4.32;1.00;;;19.30;99.90;;;;;;5038781;28;20021;-50
2022/09/13 10:05:48;;;;;;;3.83;1.00;;;19.30;99.90;;;;;;5020918;28;20025;-50
2022/09/13 10:08:30;;;;;;;2.75;0.65;;;19.40;99.90;;;;;;5047556;28;20028;-48
2022/09/13 10:10:59;;;;;;;10.85;1.50;;;19.50;99.90;;;;;;5043353;28;20025;-48
2022/09/13 10:13:25;;;;;;;3.88;1.23;;;19.50;99.90;;;;;;5038508;28;20481;-47
2022/09/13 10:16:24;;;;;;;5.05;1.02;;;19.50;99.90;;;;;;5028390;28;20491;-49
2022/09/13 10:18:49;;;;;;;8.27;1.23;;;19.60;99.90;;;;;;5038650;28;20025;-50
2022/09/13 10:21:18;;;;;;;3.85;1.45;;;19.50;99.90;;;;;;5041862;28;20033;-48
2022/09/13 10:23:52;;;;;;;5.18;1.20;;;19.40;99.90;;;;;;5040451;28;20075;-46
2022/09/13 10:26:22;;;;;;;5.80;1.50;;;19.30;99.90;;;;;;5010003;28;20017;-47
2022/09/13 10:28:51;;;;;;;3.60;1.42;;;19.30;99.90;;;;;;5040878;28;20286;-48
2022/09/13 10:31:19;;;;;;;5.85;0.73;;;19.30;99.90;;;;;;5027860;28;20059;-50
2022/09/13 10:33:50;;;;;;;3.38;1.05;;;19.30;99.90;;;;;;5041955;28;20026;-47
2022/09/13 10:36:20;;;;;;;3.95;1.10;;;19.30;99.90;;;;;;5029022;28;20025;-49
2022/09/13 10:39:12;;;;;;;5.05;0.77;;;19.40;99.90;;;;;;5022280;28;20029;-48
2022/09/13 10:41:41;;;;;;;2.58;1.05;;;19.50;99.90;;;;;;5017270;28;20061;-49
2022/09/13 10:44:37;;;;;;;5.95;1.02;;;19.50;99.90;;;;;;5040378;28;20009;-49
2022/09/13 10:47:09;;;;;;;1.73;0.63;;;19.60;99.90;;;;;;5039793;28;20361;-51
2022/09/13 10:49:53;;;;;;;3.80;1.00;;;19.60;99.90;;;;;;5026290;28;20526;-49
2022/09/13 10:52:32;;;;;;;1.80;0.90;;;19.50;99.90;;;;;;5033401;28;20036;-51
2022/09/13 10:55:17;;;;;;;4.38;1.25;;;19.40;99.90;;;;;;5039457;28;20028;-48
2022/09/13 10:57:43;;;;;;;3.00;1.13;;;19.40;99.90;;;;;;5042340;28;20025;-49
2022/09/13 11:00:12;;;;;;;2.25;1.00;;;19.50;99.90;;;;;;5023123;28;20109;-51
2022/09/13 11:03:21;;;;;;;1.90;1.00;;;19.60;99.90;;;;;;5037258;28;20490;-49
2022/09/13 11:06:11;;;;;;;2.97;0.50;;;19.60;99.90;;;;;;5035538;28;20112;-51
2022/09/13 11:08:39;;;;;;;2.53;0.98;;;19.60;99.90;;;;;;5035208;28;20541;-47
2022/09/13 11:11:20;;;;;;;4.35;0.70;;;19.60;99.90;;;;;;5038588;28;20031;-50
2022/09/13 11:13:54;;;;;;;9.90;1.25;;;19.80;99.90;;;;;;5034348;28;20032;-48
2022/09/13 11:16:37;;;;;;;3.95;1.05;;;19.80;99.90;;;;;;5038359;28;20029;-47
2022/09/13 11:19:24;;;;;;;3.58;0.80;;;19.80;99.90;;;;;;5039272;28;20017;-47
2022/09/13 11:22:27;;;;;;;2.67;0.95;;;19.90;99.90;;;;;;5037281;28;20288;-47
2022/09/13 11:25:23;;;;;;;5.57;0.68;;;20.00;99.90;;;;;;5040748;28;20071;-48
2022/09/13 11:28:07;;;;;;;5.22;1.23;;;20.20;99.90;;;;;;5039651;28;20056;-46
2022/09/13 11:30:48;;;;;;;3.42;0.82;;;20.30;99.90;;;;;;5036460;28;20026;-46
2022/09/13 11:33:26;;;;;;;3.90;0.90;;;20.50;99.90;;;;;;5045253;28;20021;-46
2022/09/13 11:36:20;;;;;;;4.63;1.00;;;20.40;99.90;;;;;;5034359;28;20436;-46
2022/09/13 11:39:04;;;;;;;3.85;1.20;;;20.50;99.90;;;;;;5029365;28;20527;-46
2022/09/13 11:41:50;;;;;;;5.80;1.08;;;20.50;99.90;;;;;;5031889;28;20055;-46
2022/09/13 11:44:34;;;;;;;5.03;0.93;;;20.40;99.90;;;;;;5039753;28;20049;-46
2022/09/13 11:47:26;;;;;;;3.50;0.95;;;20.20;99.90;;;;;;5039443;28;20171;-46
2022/09/13 11:50:13;;;;;;;5.75;0.77;;;20.10;99.90;;;;;;5041015;28;20029;-46
2022/09/13 11:52:41;;;;;;;4.25;1.02;;;20.00;99.90;;;;;;5036828;28;20013;-47
2022/09/13 11:55:10;;;;;;;5.18;1.25;;;19.90;99.90;;;;;;5040342;28;20053;-48
2022/09/13 11:57:40;;;;;;;3.80;0.88;;;19.80;99.90;;;;;;5040388;28;20033;-47
2022/09/13 12:00:14;;;;;;;4.30;1.25;;;19.60;99.90;;;;;;5021851;28;20021;-47
2022/09/13 12:03:02;;;;;;;2.85;1.13;;;19.50;99.90;;;;;;5040197;28;20120;-50
2022/09/13 12:05:48;;;;;;;3.45;1.10;;;19.50;99.90;;;;;;5014888;28;20052;-47
2022/09/13 12:08:23;;;;;;;5.47;0.77;;;19.60;99.90;;;;;;5041342;28;20024;-48
2022/09/13 12:11:21;;;;;;;1.93;0.83;;;19.70;99.90;;;;;;5040834;28;20595;-48
2022/09/13 12:14:20;;;;;;;5.20;1.00;;;19.80;99.90;;;;;;4964297;28;20038;-48
2022/09/13 12:16:50;;;;;;;5.35;1.17;;;20.00;99.90;;;;;;5023164;28;20133;-51
2022/09/13 12:19:40;;;;;;;3.88;1.08;;;20.00;99.90;;;;;;5027694;28;20035;-46
2022/09/13 12:22:08;;;;;;;2.50;0.82;;;20.00;99.90;;;;;;5037978;28;20025;-48
2022/09/13 12:24:55;;;;;;;6.15;1.48;;;20.00;99.90;;;;;;5040874;28;20080;-50
2022/09/13 12:27:30;;;;;;;;;;;20.00;99.90;;;;;;5040697;28;20020;-47
2022/09/13 12:30:14;;;;;;;3.72;0.98;;;20.00;99.90;;;;;;5041413;28;19909;-46
2022/09/13 12:32:43;;;;;;;4.30;1.02;;;20.00;99.90;;;;;;5041251;28;20131;-47
2022/09/13 12:35:50;;;;;;;2.90;0.80;;;20.00;99.90;;;;;;5041921;28;20059;-47
2022/09/13 12:38:54;;;;;;;7.03;1.20;;;19.90;99.90;;;;;;5028422;28;20021;-48
2022/09/13 12:44:16;;;;;;;4.28;0.70;;;19.80;99.90;;;;;;5061305;22;20049;-50
2022/09/13 12:47:20;;;;;;;3.80;1.05;;;19.70;99.90;;;;;;5043810;28;20387;-55
2022/09/13 12:49:58;;;;;;;3.78;1.00;;;19.70;99.90;;;;;;5000160;28;20415;-55
2022/09/13 12:52:42;;;;;;;2.97;0.93;;;19.80;99.70;;;;;;5035294;28;20498;-51
2022/09/13 12:55:38;;;;;;;4.45;1.20;;;19.90;99.80;;;;;;5043454;28;20035;-52
2022/09/13 12:58:39;;;;;;;2.97;0.90;;;20.00;99.90;;;;;;5041302;28;20100;-56
2022/09/13 13:01:22;;;;;;;3.03;0.85;;;20.00;99.90;;;;;;5042965;28;20163;-51
2022/09/13 13:04:17;;;;;;;3.33;0.88;;;20.10;99.90;;;;;;5044405;28;20137;-52
2022/09/13 13:06:57;;;;;;;3.42;1.20;;;20.20;99.90;;;;;;5040008;28;20439;-53
2022/09/13 13:09:34;;;;;;;2.35;0.80;;;20.20;99.90;;;;;;5037056;28;20017;-52
2022/09/13 13:12:00;;;;;;;4.88;1.17;;;20.10;99.90;;;;;;5041699;28;20017;-53
2022/09/13 13:14:44;;;;;;;4.93;1.27;;;20.00;99.90;;;;;;5044061;28;20112;-53
2022/09/13 13:17:39;;;;;;;6.00;1.45;;;19.90;99.90;;;;;;5042682;28;20075;-55
2022/09/13 13:20:42;;;;;;;6.68;1.00;;;19.80;99.90;;;;;;5041411;28;20025;-49
2022/09/13 13:23:16;;;;;;;4.22;0.98;;;19.80;99.90;;;;;;5027877;28;20025;-54